createdAt,value
2023-05-02T00:00:02.024Z,13.62
2023-05-02T00:02:32.052Z,13.67
2023-05-02T00:05:00.292Z,13.65
2023-05-02T00:07:28.370Z,13.66
2023-05-02T00:09:56.423Z,13.72
2023-05-02T00:12:24.525Z,13.77
2023-05-02T00:14:52.668Z,13.82
2023-05-02T00:17:21.539Z,13.72
2023-05-02T00:19:51.150Z,13.70
2023-05-02T00:22:19.274Z,13.70
2023-05-02T00:24:47.255Z,13.65
2023-05-02T00:27:17.392Z,13.60
2023-05-02T00:29:45.448Z,13.65
2023-05-02T00:32:13.519Z,13.59
2023-05-02T00:34:41.597Z,13.62
2023-05-02T00:37:11.090Z,13.64
2023-05-02T00:39:39.261Z,13.67
2023-05-02T00:42:07.804Z,13.63
2023-05-02T00:44:36.289Z,13.63
2023-05-02T00:47:04.568Z,13.61
2023-05-02T00:49:32.649Z,13.62
2023-05-02T00:52:00.805Z,13.56
2023-05-02T00:54:30.775Z,13.56
2023-05-02T00:56:59.030Z,13.56
2023-05-02T00:59:28.110Z,13.60
2023-05-02T01:02:06.829Z,13.56
2023-05-02T01:04:45.504Z,13.56
2023-05-02T01:07:32.899Z,13.52
2023-05-02T01:10:16.250Z,13.49
2023-05-02T01:12:48.249Z,13.49
2023-05-02T01:15:20.482Z,13.46
2023-05-02T01:17:50.048Z,13.42
2023-05-02T01:20:22.171Z,13.37
2023-05-02T01:22:50.945Z,13.31
2023-05-02T01:25:31.362Z,13.33
2023-05-02T01:28:09.673Z,13.32
2023-05-02T01:30:43.078Z,13.33
2023-05-02T01:33:15.030Z,13.25
2023-05-02T01:35:45.104Z,13.16
2023-05-02T01:38:16.414Z,13.11
2023-05-02T01:40:46.933Z,13.19
2023-05-02T01:43:16.862Z,13.13
2023-05-02T01:45:48.571Z,13.08
2023-05-02T01:48:19.141Z,13.06
2023-05-02T01:50:49.029Z,13.01
2023-05-02T01:53:17.654Z,13.02
2023-05-02T01:55:47.482Z,12.99
2023-05-02T01:58:16.991Z,12.96
2023-05-02T02:00:47.513Z,12.89
2023-05-02T02:03:17.439Z,12.92
2023-05-02T02:05:47.905Z,12.85
2023-05-02T02:08:15.996Z,12.81
2023-05-02T02:10:47.304Z,12.79
2023-05-02T02:13:20.219Z,12.69
2023-05-02T02:15:52.251Z,12.62
2023-05-02T02:18:23.476Z,12.61
2023-05-02T02:20:53.677Z,12.54
2023-05-02T02:23:24.945Z,12.56
2023-05-02T02:25:55.517Z,12.51
2023-05-02T02:28:23.830Z,12.44
2023-05-02T02:30:53.337Z,12.39
2023-05-02T02:33:22.316Z,12.27
2023-05-02T02:35:56.764Z,12.27
2023-05-02T02:38:33.669Z,12.28
2023-05-02T02:41:09.302Z,12.26
2023-05-02T02:43:45.654Z,12.32
2023-05-02T02:46:27.675Z,12.32
2023-05-02T02:49:07.775Z,12.23
2023-05-02T02:51:45.916Z,12.15
2023-05-02T02:54:27.022Z,12.16
2023-05-02T02:57:02.874Z,12.12
2023-05-02T02:59:34.821Z,12.07
2023-05-02T03:02:09.657Z,12.08
2023-05-02T03:04:40.290Z,12.03
2023-05-02T03:07:08.654Z,12.00
2023-05-02T03:09:43.736Z,11.96
2023-05-02T03:12:11.942Z,11.97
2023-05-02T03:14:40.783Z,11.93
2023-05-02T03:17:10.758Z,11.91
2023-05-02T03:19:38.991Z,11.88
2023-05-02T03:22:07.414Z,11.85
2023-05-02T03:24:35.550Z,11.85
2023-05-02T03:27:03.939Z,11.85
2023-05-02T03:29:31.994Z,11.82
2023-05-02T03:32:00.114Z,11.82
2023-05-02T03:34:29.573Z,11.85
2023-05-02T03:36:57.670Z,11.88
2023-05-02T03:39:25.826Z,11.91
2023-05-02T03:41:54.154Z,12.03
2023-05-02T03:44:22.227Z,12.16
2023-05-02T03:46:50.395Z,12.19
2023-05-02T03:49:19.791Z,12.27
2023-05-02T03:51:51.904Z,12.31
2023-05-02T03:54:19.934Z,12.35
2023-05-02T03:56:48.010Z,12.43
2023-05-02T03:59:16.610Z,12.52
2023-05-02T04:01:44.637Z,12.76
2023-05-02T04:04:12.799Z,13.35
2023-05-02T04:06:40.933Z,13.62
2023-05-02T04:09:10.378Z,13.75
2023-05-02T04:11:38.574Z,13.56
2023-05-02T04:14:06.734Z,13.42
2023-05-02T04:16:34.833Z,13.41
2023-05-02T04:19:02.905Z,13.37
2023-05-02T04:21:32.013Z,13.53
2023-05-02T04:24:00.244Z,14.32
2023-05-02T04:26:29.769Z,15.41
2023-05-02T04:28:57.762Z,16.66
2023-05-02T04:31:25.969Z,17.62
2023-05-02T04:33:54.170Z,18.84
2023-05-02T04:36:22.320Z,19.77
2023-05-02T04:38:50.333Z,20.80
2023-05-02T04:41:18.490Z,20.83
2023-05-02T04:43:48.014Z,21.55
2023-05-02T04:46:16.177Z,21.66
2023-05-02T04:48:44.307Z,22.49
2023-05-02T04:51:14.799Z,22.68
2023-05-02T04:53:44.473Z,23.43
2023-05-02T04:56:12.581Z,23.58
2023-05-02T04:58:40.748Z,23.87
2023-05-02T05:01:10.304Z,24.70
2023-05-02T05:03:38.376Z,24.66
2023-05-02T05:06:06.737Z,25.13
2023-05-02T05:08:34.878Z,25.87
2023-05-02T05:11:05.209Z,25.14
2023-05-02T05:13:33.341Z,24.52
2023-05-02T05:16:02.230Z,24.74
2023-05-02T05:18:32.639Z,25.24
2023-05-02T05:21:00.757Z,24.86
2023-05-02T05:23:28.768Z,24.36
2023-05-02T05:25:57.070Z,23.81
2023-05-02T05:28:25.222Z,23.46
2023-05-02T05:30:53.292Z,23.41
2023-05-02T05:33:21.503Z,24.08
2023-05-02T05:35:51.356Z,24.19
2023-05-02T05:38:19.507Z,24.67
2023-05-02T05:40:50.985Z,25.02
2023-05-02T05:43:19.101Z,25.29
2023-05-02T05:45:47.225Z,25.17
2023-05-02T05:48:15.368Z,24.31
2023-05-02T05:50:43.496Z,24.08
2023-05-02T05:53:14.334Z,24.61
2023-05-02T05:55:42.948Z,24.48
2023-05-02T05:58:11.225Z,25.37
2023-05-02T06:00:41.883Z,25.47
2023-05-02T06:03:10.237Z,24.94
2023-05-02T06:05:38.443Z,24.97
2023-05-02T06:08:06.706Z,24.70
2023-05-02T06:10:36.252Z,24.19
2023-05-02T06:13:04.348Z,24.27
2023-05-02T06:15:35.274Z,23.93
2023-05-02T06:18:03.892Z,23.67
2023-05-02T06:20:32.227Z,23.63
2023-05-02T06:23:00.270Z,23.02
2023-05-02T06:25:28.297Z,23.26
2023-05-02T06:27:57.854Z,23.05
2023-05-02T06:30:26.843Z,23.23
2023-05-02T06:32:54.968Z,23.01
2023-05-02T06:35:23.107Z,22.85
2023-05-02T06:37:51.252Z,23.13
2023-05-02T06:40:19.316Z,23.21
2023-05-02T06:42:47.463Z,22.53
2023-05-02T06:45:17.297Z,22.53
2023-05-02T06:47:45.535Z,22.24
2023-05-02T06:50:13.815Z,21.46
2023-05-02T06:52:41.937Z,21.70
2023-05-02T06:55:10.520Z,22.58
2023-05-02T06:57:38.774Z,22.46
2023-05-02T07:00:09.275Z,22.67
2023-05-02T07:02:38.879Z,22.87
2023-05-02T07:05:07.631Z,23.12
2023-05-02T07:07:36.043Z,23.35
2023-05-02T07:10:04.967Z,23.25
2023-05-02T07:12:33.119Z,22.97
2023-05-02T07:15:01.315Z,22.57
2023-05-02T07:17:29.515Z,22.47
2023-05-02T07:19:59.456Z,22.63
2023-05-02T07:22:27.722Z,22.53
2023-05-02T07:24:59.718Z,22.55
2023-05-02T07:27:27.864Z,22.52
2023-05-02T07:29:56.020Z,22.31
2023-05-02T07:32:24.981Z,22.05
2023-05-02T07:34:55.144Z,21.95
2023-05-02T07:37:25.009Z,21.83
2023-05-02T07:39:53.114Z,21.56
2023-05-02T07:42:21.197Z,21.51
2023-05-02T07:44:49.239Z,21.51
2023-05-02T07:47:17.380Z,21.85
2023-05-02T07:49:45.524Z,21.52
2023-05-02T07:52:13.647Z,22.05
2023-05-02T07:54:43.544Z,22.26
2023-05-02T07:57:11.688Z,22.62
2023-05-02T07:59:40.171Z,22.59
2023-05-02T08:02:08.431Z,23.09
2023-05-02T08:04:36.693Z,22.91
2023-05-02T08:07:04.901Z,23.34
2023-05-02T08:09:33.101Z,23.04
2023-05-02T08:12:03.460Z,23.02
2023-05-02T08:14:32.215Z,22.85
2023-05-02T08:17:00.585Z,22.31
2023-05-02T08:19:28.974Z,21.85
2023-05-02T08:21:57.065Z,21.95
2023-05-02T08:24:25.532Z,22.08
2023-05-02T08:26:53.593Z,21.78
2023-05-02T08:29:23.040Z,21.65
2023-05-02T08:31:51.382Z,21.77
2023-05-02T08:34:19.521Z,21.81
2023-05-02T08:36:48.629Z,21.57
2023-05-02T08:39:17.206Z,21.46
2023-05-02T08:41:45.894Z,21.53
2023-05-02T08:44:14.008Z,21.42
2023-05-02T08:46:44.636Z,21.78
2023-05-02T08:49:14.846Z,21.81
2023-05-02T08:51:46.095Z,22.13
2023-05-02T08:54:18.356Z,21.83
2023-05-02T08:56:47.379Z,22.03
2023-05-02T08:59:15.452Z,22.21
2023-05-02T09:01:47.910Z,22.40
2023-05-02T09:04:16.523Z,22.49
2023-05-02T09:06:44.685Z,22.86
2023-05-02T09:09:13.513Z,23.10
2023-05-02T09:11:42.873Z,23.49
2023-05-02T09:14:16.649Z,23.31
2023-05-02T09:16:46.563Z,22.79
2023-05-02T09:19:26.273Z,22.92
2023-05-02T09:22:00.509Z,22.81
2023-05-02T09:24:29.086Z,23.34
2023-05-02T09:27:02.993Z,22.80
2023-05-02T09:29:36.258Z,23.28
2023-05-02T09:32:07.502Z,22.87
2023-05-02T09:34:37.603Z,23.07
2023-05-02T09:37:06.497Z,23.41
2023-05-02T09:39:34.678Z,23.71
2023-05-02T09:42:03.620Z,23.80
2023-05-02T09:44:39.192Z,23.74
2023-05-02T09:47:09.455Z,24.04
2023-05-02T09:49:42.205Z,24.21
2023-05-02T09:52:14.737Z,23.61
2023-05-02T09:54:43.137Z,23.72
2023-05-02T09:57:11.576Z,24.27
2023-05-02T09:59:41.279Z,24.49
2023-05-02T10:02:12.122Z,24.37
2023-05-02T10:04:42.051Z,24.02
2023-05-02T10:07:11.092Z,23.47
2023-05-02T10:09:44.433Z,23.46
2023-05-02T10:12:16.914Z,23.81
2023-05-02T10:14:51.666Z,23.34
2023-05-02T10:17:29.668Z,23.68
2023-05-02T10:20:05.070Z,23.85
2023-05-02T10:22:35.190Z,24.19
2023-05-02T10:25:04.190Z,24.54
2023-05-02T10:27:33.056Z,24.52
2023-05-02T10:30:02.514Z,24.34
2023-05-02T10:32:35.287Z,24.34
2023-05-02T10:35:06.284Z,24.59
2023-05-02T10:37:37.408Z,24.38
2023-05-02T10:40:07.126Z,24.59
2023-05-02T10:42:39.802Z,24.54
2023-05-02T10:45:13.011Z,24.46
2023-05-02T10:47:42.842Z,24.29
2023-05-02T10:50:11.550Z,24.28
2023-05-02T10:52:42.185Z,24.33
2023-05-02T10:55:18.002Z,24.23
2023-05-02T10:58:23.788Z,24.58
2023-05-02T11:00:52.011Z,23.92
2023-05-02T11:03:58.641Z,23.81
2023-05-02T11:06:28.096Z,23.66
2023-05-02T11:09:35.180Z,23.55
2023-05-02T11:12:04.891Z,23.95
2023-05-02T11:14:48.825Z,24.25
2023-05-02T11:17:21.192Z,24.47
2023-05-02T11:20:28.231Z,24.87
2023-05-02T11:23:26.274Z,25.20
2023-05-02T11:25:56.771Z,25.64
2023-05-02T11:28:49.594Z,25.84
2023-05-02T11:31:51.339Z,25.89
2023-05-02T11:34:20.606Z,25.85
2023-05-02T11:36:48.728Z,24.86
2023-05-02T11:39:23.095Z,24.98
2023-05-02T11:41:51.418Z,24.66
2023-05-02T11:44:19.681Z,24.37
2023-05-02T11:46:47.903Z,24.00
2023-05-02T11:49:16.604Z,23.56
2023-05-02T11:51:44.774Z,23.52
2023-05-02T11:54:22.008Z,23.86
2023-05-02T11:56:50.426Z,24.17
2023-05-02T11:59:19.122Z,24.33
2023-05-02T12:01:50.797Z,24.72
2023-05-02T12:04:22.151Z,24.95
2023-05-02T12:06:56.871Z,25.04
2023-05-02T12:09:26.468Z,24.96
2023-05-02T12:11:55.150Z,24.94
2023-05-02T12:14:30.112Z,24.85
2023-05-02T12:17:00.306Z,25.03
2023-05-02T12:19:28.996Z,25.38
2023-05-02T12:21:57.265Z,25.38
2023-05-02T12:24:27.265Z,25.70
2023-05-02T12:27:11.090Z,25.92
2023-05-02T12:29:40.646Z,25.93
2023-05-02T12:32:08.777Z,26.16
2023-05-02T12:34:37.766Z,26.46
2023-05-02T12:37:06.341Z,26.41
2023-05-02T12:39:39.431Z,26.46
2023-05-02T12:42:11.986Z,26.12
2023-05-02T12:44:40.816Z,25.92
2023-05-02T12:47:09.546Z,25.19
2023-05-02T12:49:50.501Z,24.80
2023-05-02T12:52:18.959Z,25.07
2023-05-02T12:54:48.926Z,25.15
2023-05-02T12:57:25.115Z,25.13
2023-05-02T12:59:54.593Z,25.01
2023-05-02T13:02:23.108Z,24.90
2023-05-02T13:04:51.702Z,24.89
2023-05-02T13:07:19.927Z,24.90
2023-05-02T13:09:49.553Z,24.89
2023-05-02T13:12:18.289Z,24.56
2023-05-02T13:14:46.398Z,24.26
2023-05-02T13:17:14.725Z,24.09
2023-05-02T13:19:50.465Z,24.06
2023-05-02T13:22:29.509Z,23.75
2023-05-02T13:24:59.143Z,23.60
2023-05-02T13:27:28.221Z,23.66
2023-05-02T13:29:56.273Z,23.72
2023-05-02T13:32:24.820Z,23.84
2023-05-02T13:34:52.939Z,23.84
2023-05-02T13:37:21.313Z,23.90
2023-05-02T13:39:49.523Z,23.93
2023-05-02T13:42:18.982Z,23.94
2023-05-02T13:44:47.173Z,23.93
2023-05-02T13:47:15.249Z,23.80
2023-05-02T13:49:43.259Z,23.79
2023-05-02T13:52:11.406Z,23.67
2023-05-02T13:54:39.665Z,23.70
2023-05-02T13:57:07.707Z,23.71
2023-05-02T13:59:37.160Z,23.67
2023-05-02T14:02:05.349Z,23.71
2023-05-02T14:04:33.792Z,23.72
2023-05-02T14:07:02.005Z,23.81
2023-05-02T14:09:30.405Z,23.81
2023-05-02T14:11:59.036Z,23.79
2023-05-02T14:14:27.183Z,23.76
2023-05-02T14:16:56.871Z,23.59
2023-05-02T14:19:25.212Z,23.64
2023-05-02T14:21:53.294Z,23.62
2023-05-02T14:24:21.410Z,23.67
2023-05-02T14:26:49.545Z,23.63
2023-05-02T14:29:18.632Z,23.44
2023-05-02T14:31:47.051Z,23.29
2023-05-02T14:34:19.347Z,23.34
2023-05-02T14:36:47.404Z,23.44
2023-05-02T14:39:15.609Z,23.37
2023-05-02T14:41:43.735Z,23.39
2023-05-02T14:44:11.830Z,23.35
2023-05-02T14:46:40.063Z,23.36
2023-05-02T14:49:08.331Z,23.31
2023-05-02T14:51:40.165Z,23.14
2023-05-02T14:54:08.331Z,23.05
2023-05-02T14:56:36.760Z,22.76
2023-05-02T14:59:04.951Z,22.64
2023-05-02T15:01:33.601Z,22.56
2023-05-02T15:04:06.797Z,22.47
2023-05-02T15:06:36.792Z,22.42
2023-05-02T15:09:07.185Z,22.43
2023-05-02T15:11:35.413Z,22.35
2023-05-02T15:14:03.527Z,22.22
2023-05-02T15:16:31.871Z,22.22
2023-05-02T15:19:00.134Z,22.18
2023-05-02T15:21:28.313Z,22.23
2023-05-02T15:23:56.517Z,22.22
2023-05-02T15:26:44.584Z,22.26
2023-05-02T15:29:12.919Z,22.30
2023-05-02T15:31:41.062Z,22.18
2023-05-02T15:34:09.778Z,22.22
2023-05-02T15:36:38.115Z,22.11
2023-05-02T15:39:06.872Z,22.17
2023-05-02T15:41:36.490Z,22.19
2023-05-02T15:44:04.833Z,22.16
2023-05-02T15:46:33.048Z,22.10
2023-05-02T15:49:01.228Z,22.13
2023-05-02T15:51:29.263Z,21.98
2023-05-02T15:53:57.611Z,22.04
2023-05-02T15:56:25.730Z,22.13
2023-05-02T15:58:55.215Z,22.15
2023-05-02T16:01:24.445Z,22.10
2023-05-02T16:03:52.655Z,22.13
2023-05-02T16:06:21.006Z,22.11
2023-05-02T16:08:49.149Z,22.05
2023-05-02T16:11:17.226Z,22.01
2023-05-02T16:13:45.261Z,21.93
2023-05-02T16:16:14.750Z,21.76
2023-05-02T16:18:42.755Z,21.74
2023-05-02T16:21:11.392Z,21.62
2023-05-02T16:23:39.524Z,21.45
2023-05-02T16:26:07.851Z,21.41
2023-05-02T16:28:35.911Z,21.34
2023-05-02T16:31:07.941Z,21.19
2023-05-02T16:33:37.553Z,20.82
2023-05-02T16:36:06.566Z,20.73
2023-05-02T16:38:36.432Z,20.64
2023-05-02T16:41:09.147Z,20.54
2023-05-02T16:43:37.719Z,20.38
2023-05-02T16:46:07.425Z,20.31
2023-05-02T16:48:37.212Z,20.11
2023-05-02T16:51:05.667Z,20.05
2023-05-02T16:53:33.700Z,19.90
2023-05-02T16:56:01.989Z,19.84
2023-05-02T16:58:30.349Z,19.85
2023-05-02T17:01:01.326Z,19.76
2023-05-02T17:03:30.133Z,19.70
2023-05-02T17:06:02.225Z,19.67
2023-05-02T17:08:30.636Z,19.50
2023-05-02T17:10:59.030Z,19.37
2023-05-02T17:13:27.243Z,18.85
2023-05-02T17:15:55.999Z,18.51
2023-05-02T17:18:24.297Z,18.30
2023-05-02T17:20:52.505Z,18.14
2023-05-02T17:23:22.096Z,18.10
2023-05-02T17:25:51.004Z,18.05
2023-05-02T17:28:20.263Z,17.83
2023-05-02T17:30:48.916Z,17.70
2023-05-02T17:33:17.762Z,17.61
2023-05-02T17:35:46.137Z,17.53
2023-05-02T17:38:14.311Z,17.46
2023-05-02T17:40:44.648Z,17.37
2023-05-02T17:43:12.884Z,17.33
2023-05-02T17:45:41.940Z,17.21
2023-05-02T17:48:10.519Z,17.15
2023-05-02T17:50:39.535Z,17.15
2023-05-02T17:53:08.486Z,17.11
2023-05-02T17:55:41.906Z,17.10
2023-05-02T17:58:11.996Z,17.12
2023-05-02T18:00:41.067Z,17.07
2023-05-02T18:03:10.167Z,17.03
2023-05-02T18:05:44.311Z,17.03
2023-05-02T18:08:13.993Z,17.05
2023-05-02T18:10:44.560Z,16.95
2023-05-02T18:13:14.261Z,16.97
2023-05-02T18:15:42.827Z,16.99
2023-05-02T18:18:11.659Z,16.97
2023-05-02T18:20:41.042Z,16.98
2023-05-02T18:23:09.523Z,16.96
2023-05-02T18:25:40.579Z,16.87
2023-05-02T18:28:09.895Z,16.85
2023-05-02T18:30:42.122Z,16.75
2023-05-02T18:33:11.192Z,16.77
2023-05-02T18:35:39.869Z,16.72
2023-05-02T18:38:08.381Z,16.66
2023-05-02T18:40:37.135Z,16.62
2023-05-02T18:43:06.063Z,16.62
2023-05-02T18:45:38.576Z,16.55
2023-05-02T18:48:08.389Z,16.46
2023-05-02T18:50:37.422Z,16.34
2023-05-02T18:53:05.784Z,16.26
2023-05-02T18:55:34.965Z,16.13
2023-05-02T18:58:06.809Z,16.14
2023-05-02T19:00:37.194Z,16.11
2023-05-02T19:03:08.141Z,16.08
2023-05-02T19:05:37.434Z,16.07
2023-05-02T19:08:06.463Z,15.91
2023-05-02T19:10:35.387Z,15.82
2023-05-02T19:13:03.832Z,15.78
2023-05-02T19:15:32.110Z,15.65
2023-05-02T19:18:00.989Z,15.61
2023-05-02T19:20:31.702Z,15.55
2023-05-02T19:23:18.385Z,15.49
2023-05-02T19:25:49.669Z,15.44
2023-05-02T19:28:18.314Z,15.49
2023-05-02T19:30:47.279Z,15.49
2023-05-02T19:33:15.655Z,15.51
2023-05-02T19:35:46.160Z,15.47
2023-05-02T19:38:15.371Z,15.37
2023-05-02T19:40:43.944Z,15.20
2023-05-02T19:43:13.332Z,15.02
2023-05-02T19:45:42.470Z,14.95
2023-05-02T19:48:12.717Z,14.85
2023-05-02T19:50:42.024Z,14.84
2023-05-02T19:53:11.976Z,14.87
2023-05-02T19:55:40.664Z,14.85
2023-05-02T19:58:09.034Z,14.90
2023-05-02T20:00:38.112Z,14.86
2023-05-02T20:03:07.364Z,14.81
2023-05-02T20:05:36.439Z,14.79
2023-05-02T20:08:07.360Z,14.71
2023-05-02T20:10:37.397Z,14.63
2023-05-02T20:13:05.482Z,14.66
2023-05-02T20:15:34.028Z,14.70
2023-05-02T20:18:02.747Z,14.69
2023-05-02T20:20:31.489Z,14.73
2023-05-02T20:23:00.044Z,14.77
2023-05-02T20:25:30.210Z,14.81
2023-05-02T20:28:00.151Z,14.79
2023-05-02T20:30:28.586Z,14.81
2023-05-02T20:32:59.465Z,14.77
2023-05-02T20:35:32.417Z,14.72
2023-05-02T20:38:01.853Z,14.69
2023-05-02T20:40:32.464Z,14.68
2023-05-02T20:43:02.260Z,14.68
2023-05-02T20:45:30.508Z,14.61
2023-05-02T20:47:58.698Z,14.51
2023-05-02T20:50:26.981Z,14.42
2023-05-02T20:52:55.620Z,14.37
2023-05-02T20:55:23.917Z,14.44
2023-05-02T20:57:53.521Z,14.33
2023-05-02T21:00:23.627Z,14.26
2023-05-02T21:02:51.811Z,14.20
2023-05-02T21:05:20.099Z,14.19
2023-05-02T21:07:48.254Z,14.31
2023-05-02T21:10:16.416Z,14.35
2023-05-02T21:12:44.552Z,14.35
2023-05-02T21:15:14.468Z,14.23
2023-05-02T21:17:43.974Z,14.14
2023-05-02T21:20:13.282Z,14.06
2023-05-02T21:22:44.911Z,14.04
2023-05-02T21:25:13.381Z,14.04
2023-05-02T21:27:41.522Z,14.02
2023-05-02T21:30:10.849Z,14.04
2023-05-02T21:32:39.000Z,14.06
2023-05-02T21:35:09.676Z,14.01
2023-05-02T21:37:37.829Z,13.81
2023-05-02T21:40:07.152Z,13.73
2023-05-02T21:42:35.360Z,13.74
2023-05-02T21:45:03.510Z,13.77
2023-05-02T21:47:33.365Z,13.82
2023-05-02T21:50:01.736Z,13.77
2023-05-02T21:52:31.784Z,13.69
2023-05-02T21:54:59.846Z,13.70
2023-05-02T21:57:30.672Z,13.59
2023-05-02T21:59:58.893Z,13.57
2023-05-02T22:02:27.836Z,13.56
2023-05-02T22:04:57.887Z,13.53
2023-05-02T22:07:26.285Z,13.57
2023-05-02T22:09:55.875Z,13.57
2023-05-02T22:12:25.288Z,13.50
2023-05-02T22:14:53.424Z,13.56
2023-05-02T22:17:22.828Z,13.63
2023-05-02T22:19:51.855Z,13.65
2023-05-02T22:22:19.977Z,13.62
2023-05-02T22:24:48.356Z,13.64
2023-05-02T22:27:18.020Z,13.59
2023-05-02T22:29:46.257Z,13.68
2023-05-02T22:32:14.336Z,13.71
2023-05-02T22:34:42.626Z,13.75
2023-05-02T22:37:10.849Z,13.77
2023-05-02T22:39:38.975Z,13.79
2023-05-02T22:42:07.221Z,13.77
2023-05-02T22:44:50.538Z,13.74
2023-05-02T22:47:23.001Z,13.70
2023-05-02T22:49:52.305Z,13.63
2023-05-02T22:52:20.895Z,13.75
2023-05-02T22:54:49.230Z,13.74
2023-05-02T22:57:23.992Z,13.72
2023-05-02T22:59:53.597Z,13.73
2023-05-02T23:02:21.810Z,13.67
2023-05-02T23:04:49.986Z,13.65
2023-05-02T23:07:18.063Z,13.64
2023-05-02T23:09:46.129Z,13.60
2023-05-02T23:12:14.224Z,13.61
2023-05-02T23:14:42.459Z,13.57
2023-05-02T23:17:11.999Z,13.53
2023-05-02T23:19:40.081Z,13.53
2023-05-02T23:22:08.159Z,13.55
2023-05-02T23:24:36.360Z,13.57
2023-05-02T23:27:04.868Z,13.57
2023-05-02T23:29:33.060Z,13.57
2023-05-02T23:32:01.368Z,13.53
2023-05-02T23:34:31.741Z,13.55
2023-05-02T23:36:59.861Z,13.45
2023-05-02T23:39:27.999Z,13.39
2023-05-02T23:41:56.118Z,13.36
2023-05-02T23:44:24.335Z,13.38
2023-05-02T23:46:52.532Z,13.35
2023-05-02T23:49:21.402Z,13.32
2023-05-02T23:51:50.936Z,13.30
2023-05-02T23:54:19.135Z,13.31
2023-05-02T23:56:48.035Z,13.33
2023-05-02T23:59:16.308Z,13.34
